sensor_id;sensor_type;location;lat;lon;timestamp;temperature;humidity
2729;DHT22;1372;47.956;7.830;2023-02-28T00:00:34;2.40;99.90
2729;DHT22;1372;47.956;7.830;2023-02-28T00:03:03;2.30;99.90
2729;DHT22;1372;47.956;7.830;2023-02-28T00:05:32;2.20;99.90
2729;DHT22;1372;47.956;7.830;2023-02-28T00:08:03;2.20;99.90
2729;DHT22;1372;47.956;7.830;2023-02-28T00:10:35;2.20;99.90
2729;DHT22;1372;47.956;7.830;2023-02-28T00:13:06;2.20;99.90
2729;DHT22;1372;47.956;7.830;2023-02-28T00:15:35;2.30;99.90
2729;DHT22;1372;47.956;7.830;2023-02-28T00:18:03;2.30;99.90
2729;DHT22;1372;47.956;7.830;2023-02-28T00:20:34;2.20;99.90
2729;DHT22;1372;47.956;7.830;2023-02-28T00:23:04;2.10;99.90
2729;DHT22;1372;47.956;7.830;2023-02-28T00:25:33;2.10;99.90
2729;DHT22;1372;47.956;7.830;2023-02-28T00:28:02;2.10;99.90
2729;DHT22;1372;47.956;7.830;2023-02-28T00:30:30;2.20;99.90
2729;DHT22;1372;47.956;7.830;2023-02-28T00:32:59;2.30;99.90
2729;DHT22;1372;47.956;7.830;2023-02-28T00:35:28;2.20;99.90
2729;DHT22;1372;47.956;7.830;2023-02-28T00:37:56;2.20;99.90
2729;DHT22;1372;47.956;7.830;2023-02-28T00:40:26;2.20;99.90
2729;DHT22;1372;47.956;7.830;2023-02-28T00:42:55;2.20;99.90
2729;DHT22;1372;47.956;7.830;2023-02-28T00:45:24;2.10;99.90
2729;DHT22;1372;47.956;7.830;2023-02-28T00:47:52;2.00;99.90
2729;DHT22;1372;47.956;7.830;2023-02-28T00:50:21;2.10;99.90
2729;DHT22;1372;47.956;7.830;2023-02-28T00:52:50;2.10;99.90
2729;DHT22;1372;47.956;7.830;2023-02-28T00:55:18;2.10;99.90
2729;DHT22;1372;47.956;7.830;2023-02-28T00:57:48;2.10;99.90
2729;DHT22;1372;47.956;7.830;2023-02-28T01:00:18;2.10;99.90
2729;DHT22;1372;47.956;7.830;2023-02-28T01:02:47;2.00;99.90
2729;DHT22;1372;47.956;7.830;2023-02-28T01:05:16;2.10;99.90
2729;DHT22;1372;47.956;7.830;2023-02-28T01:07:47;2.10;99.90
2729;DHT22;1372;47.956;7.830;2023-02-28T01:10:16;2.10;99.90
2729;DHT22;1372;47.956;7.830;2023-02-28T01:12:45;2.00;99.90
2729;DHT22;1372;47.956;7.830;2023-02-28T01:15:16;2.10;99.90
2729;DHT22;1372;47.956;7.830;2023-02-28T01:17:45;2.00;99.90
2729;DHT22;1372;47.956;7.830;2023-02-28T01:20:13;2.00;99.90
2729;DHT22;1372;47.956;7.830;2023-02-28T01:22:42;2.00;99.90
2729;DHT22;1372;47.956;7.830;2023-02-28T01:25:11;2.20;99.90
2729;DHT22;1372;47.956;7.830;2023-02-28T01:27:40;2.10;99.90
2729;DHT22;1372;47.956;7.830;2023-02-28T01:30:10;2.00;99.90
2729;DHT22;1372;47.956;7.830;2023-02-28T01:32:40;2.10;99.90
2729;DHT22;1372;47.956;7.830;2023-02-28T01:35:09;2.10;99.90
2729;DHT22;1372;47.956;7.830;2023-02-28T01:37:38;2.10;99.90
2729;DHT22;1372;47.956;7.830;2023-02-28T01:40:08;2.10;99.90
2729;DHT22;1372;47.956;7.830;2023-02-28T01:42:37;2.10;99.90
2729;DHT22;1372;47.956;7.830;2023-02-28T01:45:22;2.00;99.90
2729;DHT22;1372;47.956;7.830;2023-02-28T01:47:58;2.00;99.90
2729;DHT22;1372;47.956;7.830;2023-02-28T01:50:34;2.00;99.90
2729;DHT22;1372;47.956;7.830;2023-02-28T01:53:07;2.10;99.90
2729;DHT22;1372;47.956;7.830;2023-02-28T01:55:39;2.10;99.90
2729;DHT22;1372;47.956;7.830;2023-02-28T01:58:09;2.10;99.90
2729;DHT22;1372;47.956;7.830;2023-02-28T02:00:38;2.10;99.90
2729;DHT22;1372;47.956;7.830;2023-02-28T02:03:13;2.10;99.90
2729;DHT22;1372;47.956;7.830;2023-02-28T02:05:48;2.00;99.90
2729;DHT22;1372;47.956;7.830;2023-02-28T02:08:20;2.00;99.90
2729;DHT22;1372;47.956;7.830;2023-02-28T02:10:52;2.10;99.90
2729;DHT22;1372;47.956;7.830;2023-02-28T02:13:33;2.00;99.90
2729;DHT22;1372;47.956;7.830;2023-02-28T02:16:23;2.10;99.90
2729;DHT22;1372;47.956;7.830;2023-02-28T02:19:09;2.10;99.90
2729;DHT22;1372;47.956;7.830;2023-02-28T02:22:12;2.00;99.90
2729;DHT22;1372;47.956;7.830;2023-02-28T02:25:14;2.00;99.90
2729;DHT22;1372;47.956;7.830;2023-02-28T02:28:18;2.00;99.90
2729;DHT22;1372;47.956;7.830;2023-02-28T02:31:38;2.00;99.90
2729;DHT22;1372;47.956;7.830;2023-02-28T02:34:35;2.00;99.90
2729;DHT22;1372;47.956;7.830;2023-02-28T02:37:27;2.10;99.90
2729;DHT22;1372;47.956;7.830;2023-02-28T02:40:03;2.00;99.90
2729;DHT22;1372;47.956;7.830;2023-02-28T02:42:42;2.00;99.90
2729;DHT22;1372;47.956;7.830;2023-02-28T02:45:21;1.90;99.90
2729;DHT22;1372;47.956;7.830;2023-02-28T02:47:53;1.80;99.90
2729;DHT22;1372;47.956;7.830;2023-02-28T02:50:29;1.90;99.90
2729;DHT22;1372;47.956;7.830;2023-02-28T02:53:02;2.00;99.90
2729;DHT22;1372;47.956;7.830;2023-02-28T02:55:38;2.00;99.90
2729;DHT22;1372;47.956;7.830;2023-02-28T02:58:12;2.00;99.90
2729;DHT22;1372;47.956;7.830;2023-02-28T03:00:45;2.00;99.90
2729;DHT22;1372;47.956;7.830;2023-02-28T03:03:18;2.00;99.90
2729;DHT22;1372;47.956;7.830;2023-02-28T03:05:59;2.00;99.90
2729;DHT22;1372;47.956;7.830;2023-02-28T03:08:29;2.00;99.90
2729;DHT22;1372;47.956;7.830;2023-02-28T03:11:04;2.10;99.90
2729;DHT22;1372;47.956;7.830;2023-02-28T03:14:10;2.10;99.90
2729;DHT22;1372;47.956;7.830;2023-02-28T03:16:59;1.90;99.90
2729;DHT22;1372;47.956;7.830;2023-02-28T03:19:45;1.90;99.90
2729;DHT22;1372;47.956;7.830;2023-02-28T03:22:29;2.00;99.90
2729;DHT22;1372;47.956;7.830;2023-02-28T03:25:07;1.90;99.90
2729;DHT22;1372;47.956;7.830;2023-02-28T03:27:40;1.80;99.90
2729;DHT22;1372;47.956;7.830;2023-02-28T03:30:13;1.80;99.90
2729;DHT22;1372;47.956;7.830;2023-02-28T03:32:53;1.80;99.90
2729;DHT22;1372;47.956;7.830;2023-02-28T03:35:27;1.60;99.90
2729;DHT22;1372;47.956;7.830;2023-02-28T03:38:05;1.60;99.90
2729;DHT22;1372;47.956;7.830;2023-02-28T03:40:43;1.70;99.90
2729;DHT22;1372;47.956;7.830;2023-02-28T03:43:19;1.80;99.90
2729;DHT22;1372;47.956;7.830;2023-02-28T03:45:51;1.80;99.90
2729;DHT22;1372;47.956;7.830;2023-02-28T03:48:23;1.80;99.90
2729;DHT22;1372;47.956;7.830;2023-02-28T03:50:58;1.70;99.90
2729;DHT22;1372;47.956;7.830;2023-02-28T03:53:33;1.70;99.90
2729;DHT22;1372;47.956;7.830;2023-02-28T03:56:07;1.70;99.90
2729;DHT22;1372;47.956;7.830;2023-02-28T03:58:46;1.70;99.90
2729;DHT22;1372;47.956;7.830;2023-02-28T04:01:20;1.70;99.90
2729;DHT22;1372;47.956;7.830;2023-02-28T04:03:50;1.80;99.90
2729;DHT22;1372;47.956;7.830;2023-02-28T04:06:20;1.70;99.90
2729;DHT22;1372;47.956;7.830;2023-02-28T04:08:52;1.70;99.90
2729;DHT22;1372;47.956;7.830;2023-02-28T04:11:23;1.60;99.90
2729;DHT22;1372;47.956;7.830;2023-02-28T04:13:58;1.60;99.90
2729;DHT22;1372;47.956;7.830;2023-02-28T04:16:27;1.60;99.90
2729;DHT22;1372;47.956;7.830;2023-02-28T04:19:02;1.40;99.90
2729;DHT22;1372;47.956;7.830;2023-02-28T04:21:34;1.40;99.90
2729;DHT22;1372;47.956;7.830;2023-02-28T04:24:07;1.50;99.90
2729;DHT22;1372;47.956;7.830;2023-02-28T04:26:43;1.40;99.90
2729;DHT22;1372;47.956;7.830;2023-02-28T04:29:19;1.40;99.90
2729;DHT22;1372;47.956;7.830;2023-02-28T04:31:50;1.40;99.90
2729;DHT22;1372;47.956;7.830;2023-02-28T04:34:20;1.40;99.90
2729;DHT22;1372;47.956;7.830;2023-02-28T04:36:50;1.40;99.90
2729;DHT22;1372;47.956;7.830;2023-02-28T04:39:40;1.40;99.90
2729;DHT22;1372;47.956;7.830;2023-02-28T04:42:09;1.40;99.90
2729;DHT22;1372;47.956;7.830;2023-02-28T04:44:39;1.40;99.90
2729;DHT22;1372;47.956;7.830;2023-02-28T04:47:08;1.20;99.90
2729;DHT22;1372;47.956;7.830;2023-02-28T04:49:37;1.20;99.90
2729;DHT22;1372;47.956;7.830;2023-02-28T04:52:05;1.20;99.90
2729;DHT22;1372;47.956;7.830;2023-02-28T04:54:38;1.30;99.90
2729;DHT22;1372;47.956;7.830;2023-02-28T04:57:07;1.20;99.90
2729;DHT22;1372;47.956;7.830;2023-02-28T04:59:36;1.20;99.90
2729;DHT22;1372;47.956;7.830;2023-02-28T05:02:05;1.20;99.90
2729;DHT22;1372;47.956;7.830;2023-02-28T05:04:35;1.10;99.90
2729;DHT22;1372;47.956;7.830;2023-02-28T05:07:04;1.10;99.90
2729;DHT22;1372;47.956;7.830;2023-02-28T05:09:33;1.20;99.90
2729;DHT22;1372;47.956;7.830;2023-02-28T05:12:03;1.20;99.90
2729;DHT22;1372;47.956;7.830;2023-02-28T05:14:32;1.10;99.90
2729;DHT22;1372;47.956;7.830;2023-02-28T05:17:01;1.10;99.90
2729;DHT22;1372;47.956;7.830;2023-02-28T05:19:29;1.00;99.90
2729;DHT22;1372;47.956;7.830;2023-02-28T05:21:58;1.10;99.90
2729;DHT22;1372;47.956;7.830;2023-02-28T05:24:27;1.10;99.90
2729;DHT22;1372;47.956;7.830;2023-02-28T05:26:56;1.10;99.90
2729;DHT22;1372;47.956;7.830;2023-02-28T05:29:26;1.00;99.90
2729;DHT22;1372;47.956;7.830;2023-02-28T05:31:55;1.00;99.90
2729;DHT22;1372;47.956;7.830;2023-02-28T05:34:27;1.00;99.90
2729;DHT22;1372;47.956;7.830;2023-02-28T05:36:56;1.00;99.90
2729;DHT22;1372;47.956;7.830;2023-02-28T05:39:24;1.00;99.90
2729;DHT22;1372;47.956;7.830;2023-02-28T05:41:53;1.10;99.90
2729;DHT22;1372;47.956;7.830;2023-02-28T05:44:22;1.10;99.90
2729;DHT22;1372;47.956;7.830;2023-02-28T05:46:52;1.00;99.90
2729;DHT22;1372;47.956;7.830;2023-02-28T05:49:21;1.10;99.90
2729;DHT22;1372;47.956;7.830;2023-02-28T05:51:50;0.90;99.90
2729;DHT22;1372;47.956;7.830;2023-02-28T05:54:19;0.90;99.90
2729;DHT22;1372;47.956;7.830;2023-02-28T05:56:50;1.00;99.90
2729;DHT22;1372;47.956;7.830;2023-02-28T05:59:18;0.90;99.90
2729;DHT22;1372;47.956;7.830;2023-02-28T06:01:47;0.90;99.90
2729;DHT22;1372;47.956;7.830;2023-02-28T06:04:19;0.90;99.90
2729;DHT22;1372;47.956;7.830;2023-02-28T06:06:58;1.10;99.90
2729;DHT22;1372;47.956;7.830;2023-02-28T06:09:26;1.30;99.90
2729;DHT22;1372;47.956;7.830;2023-02-28T06:11:57;1.50;99.90
2729;DHT22;1372;47.956;7.830;2023-02-28T06:14:26;1.50;99.90
2729;DHT22;1372;47.956;7.830;2023-02-28T06:16:56;1.40;99.90
2729;DHT22;1372;47.956;7.830;2023-02-28T06:19:29;1.40;99.90
2729;DHT22;1372;47.956;7.830;2023-02-28T06:21:58;1.50;99.90
2729;DHT22;1372;47.956;7.830;2023-02-28T06:24:27;1.60;99.90
2729;DHT22;1372;47.956;7.830;2023-02-28T06:26:56;1.50;99.90
2729;DHT22;1372;47.956;7.830;2023-02-28T06:29:26;1.70;99.90
2729;DHT22;1372;47.956;7.830;2023-02-28T06:31:54;1.60;99.90
2729;DHT22;1372;47.956;7.830;2023-02-28T06:34:23;1.70;99.90
2729;DHT22;1372;47.956;7.830;2023-02-28T06:36:53;1.70;99.90
2729;DHT22;1372;47.956;7.830;2023-02-28T06:39:22;1.80;99.90
2729;DHT22;1372;47.956;7.830;2023-02-28T06:41:51;1.50;99.90
2729;DHT22;1372;47.956;7.830;2023-02-28T06:44:23;1.60;99.90
2729;DHT22;1372;47.956;7.830;2023-02-28T06:46:52;1.50;99.90
2729;DHT22;1372;47.956;7.830;2023-02-28T06:49:21;1.50;99.90
2729;DHT22;1372;47.956;7.830;2023-02-28T06:51:50;1.50;99.90
2729;DHT22;1372;47.956;7.830;2023-02-28T06:54:20;1.60;99.90
2729;DHT22;1372;47.956;7.830;2023-02-28T06:56:49;1.60;99.90
2729;DHT22;1372;47.956;7.830;2023-02-28T06:59:20;1.70;99.90
2729;DHT22;1372;47.956;7.830;2023-02-28T07:01:52;1.70;99.90
2729;DHT22;1372;47.956;7.830;2023-02-28T07:04:22;1.80;99.90
2729;DHT22;1372;47.956;7.830;2023-02-28T07:06:51;1.80;99.90
2729;DHT22;1372;47.956;7.830;2023-02-28T07:09:22;1.90;99.90
2729;DHT22;1372;47.956;7.830;2023-02-28T07:11:51;1.90;99.90
2729;DHT22;1372;47.956;7.830;2023-02-28T07:14:19;1.80;99.90
2729;DHT22;1372;47.956;7.830;2023-02-28T07:16:49;1.90;99.90
2729;DHT22;1372;47.956;7.830;2023-02-28T07:19:18;2.00;99.90
2729;DHT22;1372;47.956;7.830;2023-02-28T07:21:46;2.10;99.90
2729;DHT22;1372;47.956;7.830;2023-02-28T07:24:15;2.10;99.90
2729;DHT22;1372;47.956;7.830;2023-02-28T07:26:46;2.20;99.90
2729;DHT22;1372;47.956;7.830;2023-02-28T07:29:15;2.00;99.90
2729;DHT22;1372;47.956;7.830;2023-02-28T07:31:44;2.10;99.90
2729;DHT22;1372;47.956;7.830;2023-02-28T07:34:13;2.20;99.90
2729;DHT22;1372;47.956;7.830;2023-02-28T07:36:42;2.10;99.90
2729;DHT22;1372;47.956;7.830;2023-02-28T07:39:11;2.10;99.90
2729;DHT22;1372;47.956;7.830;2023-02-28T07:41:40;2.10;99.90
2729;DHT22;1372;47.956;7.830;2023-02-28T07:44:12;1.80;99.90
2729;DHT22;1372;47.956;7.830;2023-02-28T07:46:43;1.80;99.90
2729;DHT22;1372;47.956;7.830;2023-02-28T07:49:11;1.80;99.90
2729;DHT22;1372;47.956;7.830;2023-02-28T07:51:40;1.90;99.90
2729;DHT22;1372;47.956;7.830;2023-02-28T07:54:09;1.90;99.90
2729;DHT22;1372;47.956;7.830;2023-02-28T07:56:40;1.90;99.90
2729;DHT22;1372;47.956;7.830;2023-02-28T07:59:09;1.90;99.90
2729;DHT22;1372;47.956;7.830;2023-02-28T08:01:40;1.60;99.90
2729;DHT22;1372;47.956;7.830;2023-02-28T08:04:09;1.70;99.90
2729;DHT22;1372;47.956;7.830;2023-02-28T08:06:38;2.00;99.90
2729;DHT22;1372;47.956;7.830;2023-02-28T08:09:07;2.00;99.90
2729;DHT22;1372;47.956;7.830;2023-02-28T08:11:38;2.10;99.90
2729;DHT22;1372;47.956;7.830;2023-02-28T09:09:26;3.30;99.90
2729;DHT22;1372;47.956;7.830;2023-02-28T09:11:56;3.40;99.90
2729;DHT22;1372;47.956;7.830;2023-02-28T09:14:26;3.50;99.90
2729;DHT22;1372;47.956;7.830;2023-02-28T09:16:54;3.60;99.90
2729;DHT22;1372;47.956;7.830;2023-02-28T09:19:23;3.70;99.90
2729;DHT22;1372;47.956;7.830;2023-02-28T09:21:52;3.60;99.90
2729;DHT22;1372;47.956;7.830;2023-02-28T09:24:21;3.50;99.90
2729;DHT22;1372;47.956;7.830;2023-02-28T09:26:51;3.70;99.90
2729;DHT22;1372;47.956;7.830;2023-02-28T09:29:33;3.30;99.90
2729;DHT22;1372;47.956;7.830;2023-02-28T09:32:03;3.70;99.90
2729;DHT22;1372;47.956;7.830;2023-02-28T09:34:33;3.70;99.90
2729;DHT22;1372;47.956;7.830;2023-02-28T09:37:04;3.60;99.90
2729;DHT22;1372;47.956;7.830;2023-02-28T09:39:32;3.50;99.90
2729;DHT22;1372;47.956;7.830;2023-02-28T09:42:03;3.70;99.90
2729;DHT22;1372;47.956;7.830;2023-02-28T09:44:37;3.80;99.90
2729;DHT22;1372;47.956;7.830;2023-02-28T09:47:21;3.80;99.90
2729;DHT22;1372;47.956;7.830;2023-02-28T09:49:57;4.00;99.90
2729;DHT22;1372;47.956;7.830;2023-02-28T09:52:30;4.20;99.90
2729;DHT22;1372;47.956;7.830;2023-02-28T09:55:20;4.10;99.90
2729;DHT22;1372;47.956;7.830;2023-02-28T09:57:52;4.30;99.90
2729;DHT22;1372;47.956;7.830;2023-02-28T10:00:23;4.40;99.90
2729;DHT22;1372;47.956;7.830;2023-02-28T10:03:08;4.50;99.90
2729;DHT22;1372;47.956;7.830;2023-02-28T10:05:59;4.40;99.90
2729;DHT22;1372;47.956;7.830;2023-02-28T10:08:37;4.40;99.90
2729;DHT22;1372;47.956;7.830;2023-02-28T10:11:12;4.60;99.90
2729;DHT22;1372;47.956;7.830;2023-02-28T10:13:51;4.70;99.90
2729;DHT22;1372;47.956;7.830;2023-02-28T10:16:27;4.70;99.90
2729;DHT22;1372;47.956;7.830;2023-02-28T10:19:03;4.70;99.90
2729;DHT22;1372;47.956;7.830;2023-02-28T10:21:36;5.00;99.90
2729;DHT22;1372;47.956;7.830;2023-02-28T10:24:19;4.90;99.90
2729;DHT22;1372;47.956;7.830;2023-02-28T10:26:52;5.10;99.90
2729;DHT22;1372;47.956;7.830;2023-02-28T10:29:32;5.20;99.90
2729;DHT22;1372;47.956;7.830;2023-02-28T10:32:02;5.30;99.90
2729;DHT22;1372;47.956;7.830;2023-02-28T10:34:32;5.40;99.90
2729;DHT22;1372;47.956;7.830;2023-02-28T10:37:01;5.50;99.90
2729;DHT22;1372;47.956;7.830;2023-02-28T10:39:37;5.40;99.90
2729;DHT22;1372;47.956;7.830;2023-02-28T10:42:20;5.40;99.90
2729;DHT22;1372;47.956;7.830;2023-02-28T10:45:11;5.10;99.90
2729;DHT22;1372;47.956;7.830;2023-02-28T10:47:50;5.20;99.90
2729;DHT22;1372;47.956;7.830;2023-02-28T10:50:31;5.20;99.90
2729;DHT22;1372;47.956;7.830;2023-02-28T10:53:17;4.70;99.90
2729;DHT22;1372;47.956;7.830;2023-02-28T10:55:57;4.70;99.90
2729;DHT22;1372;47.956;7.830;2023-02-28T11:28:42;5.60;99.90
2729;DHT22;1372;47.956;7.830;2023-02-28T11:31:17;5.80;99.90
2729;DHT22;1372;47.956;7.830;2023-02-28T11:33:51;5.70;99.90
2729;DHT22;1372;47.956;7.830;2023-02-28T11:36:25;5.70;99.90
2729;DHT22;1372;47.956;7.830;2023-02-28T11:38:56;5.70;99.90
2729;DHT22;1372;47.956;7.830;2023-02-28T11:41:41;5.60;99.90
2729;DHT22;1372;47.956;7.830;2023-02-28T12:03:03;5.70;99.90
2729;DHT22;1372;47.956;7.830;2023-02-28T12:05:42;5.80;99.90
2729;DHT22;1372;47.956;7.830;2023-02-28T12:08:26;5.90;99.90
2729;DHT22;1372;47.956;7.830;2023-02-28T12:11:07;5.80;99.90
2729;DHT22;1372;47.956;7.830;2023-02-28T12:13:50;5.70;99.90
2729;DHT22;1372;47.956;7.830;2023-02-28T12:16:40;5.70;99.90
2729;DHT22;1372;47.956;7.830;2023-02-28T12:19:23;5.80;99.90
2729;DHT22;1372;47.956;7.830;2023-02-28T12:22:17;5.70;99.90
2729;DHT22;1372;47.956;7.830;2023-02-28T12:25:19;5.80;99.90
2729;DHT22;1372;47.956;7.830;2023-02-28T12:28:04;5.80;99.90
2729;DHT22;1372;47.956;7.830;2023-02-28T12:30:38;5.70;99.90
2729;DHT22;1372;47.956;7.830;2023-02-28T12:33:13;5.70;99.90
2729;DHT22;1372;47.956;7.830;2023-02-28T12:35:49;5.70;99.90
2729;DHT22;1372;47.956;7.830;2023-02-28T12:38:25;5.70;99.90
2729;DHT22;1372;47.956;7.830;2023-02-28T12:40:59;5.60;99.90
2729;DHT22;1372;47.956;7.830;2023-02-28T12:43:32;5.50;99.90
2729;DHT22;1372;47.956;7.830;2023-02-28T12:46:09;5.40;99.90
2729;DHT22;1372;47.956;7.830;2023-02-28T12:48:43;5.40;99.90
2729;DHT22;1372;47.956;7.830;2023-02-28T12:51:16;5.50;99.90
2729;DHT22;1372;47.956;7.830;2023-02-28T12:54:03;5.40;99.90
2729;DHT22;1372;47.956;7.830;2023-02-28T12:56:43;5.40;99.90
2729;DHT22;1372;47.956;7.830;2023-02-28T12:59:23;5.20;99.90
2729;DHT22;1372;47.956;7.830;2023-02-28T13:05:50;5.20;99.90
2729;DHT22;1372;47.956;7.830;2023-02-28T13:09:02;5.30;99.90
2729;DHT22;1372;47.956;7.830;2023-02-28T13:11:39;5.20;99.90
2729;DHT22;1372;47.956;7.830;2023-02-28T13:14:30;5.20;99.90
2729;DHT22;1372;47.956;7.830;2023-02-28T13:17:11;5.30;99.90
2729;DHT22;1372;47.956;7.830;2023-02-28T13:19:44;5.40;99.90
2729;DHT22;1372;47.956;7.830;2023-02-28T13:22:20;5.40;99.90
2729;DHT22;1372;47.956;7.830;2023-02-28T13:32:32;5.40;99.90
2729;DHT22;1372;47.956;7.830;2023-02-28T13:38:24;5.60;99.90
2729;DHT22;1372;47.956;7.830;2023-02-28T13:41:43;5.50;99.90
2729;DHT22;1372;47.956;7.830;2023-02-28T13:44:15;5.20;99.90
2729;DHT22;1372;47.956;7.830;2023-02-28T13:47:20;5.20;99.90
2729;DHT22;1372;47.956;7.830;2023-02-28T13:49:52;5.30;99.90
2729;DHT22;1372;47.956;7.830;2023-02-28T13:52:23;5.30;99.90
2729;DHT22;1372;47.956;7.830;2023-02-28T13:55:09;5.30;99.90
2729;DHT22;1372;47.956;7.830;2023-02-28T13:57:57;5.30;99.90
2729;DHT22;1372;47.956;7.830;2023-02-28T14:04:09;5.10;99.90
2729;DHT22;1372;47.956;7.830;2023-02-28T14:06:48;5.00;99.90
2729;DHT22;1372;47.956;7.830;2023-02-28T14:09:23;5.00;99.90
2729;DHT22;1372;47.956;7.830;2023-02-28T14:11:54;5.00;99.90
2729;DHT22;1372;47.956;7.830;2023-02-28T14:14:54;5.20;99.90
2729;DHT22;1372;47.956;7.830;2023-02-28T14:17:25;5.30;99.90
2729;DHT22;1372;47.956;7.830;2023-02-28T14:19:57;5.20;99.90
2729;DHT22;1372;47.956;7.830;2023-02-28T14:22:50;5.30;99.90
2729;DHT22;1372;47.956;7.830;2023-02-28T14:25:25;5.30;99.90
2729;DHT22;1372;47.956;7.830;2023-02-28T14:28:11;5.30;99.90
2729;DHT22;1372;47.956;7.830;2023-02-28T14:30:57;5.40;99.90
2729;DHT22;1372;47.956;7.830;2023-02-28T14:33:42;5.40;99.90
2729;DHT22;1372;47.956;7.830;2023-02-28T14:36:32;5.40;99.90
2729;DHT22;1372;47.956;7.830;2023-02-28T14:39:06;5.40;99.90
2729;DHT22;1372;47.956;7.830;2023-02-28T14:41:39;5.40;99.90
2729;DHT22;1372;47.956;7.830;2023-02-28T14:44:15;5.40;99.90
2729;DHT22;1372;47.956;7.830;2023-02-28T14:46:50;5.40;99.90
2729;DHT22;1372;47.956;7.830;2023-02-28T14:49:23;5.40;99.90
2729;DHT22;1372;47.956;7.830;2023-02-28T14:52:06;5.40;99.90
2729;DHT22;1372;47.956;7.830;2023-02-28T14:54:40;5.30;99.90
2729;DHT22;1372;47.956;7.830;2023-02-28T14:57:22;5.20;99.90
2729;DHT22;1372;47.956;7.830;2023-02-28T15:00:00;5.20;99.90
2729;DHT22;1372;47.956;7.830;2023-02-28T15:02:39;5.30;99.90
2729;DHT22;1372;47.956;7.830;2023-02-28T15:05:27;5.30;99.90
2729;DHT22;1372;47.956;7.830;2023-02-28T15:08:11;5.30;99.90
2729;DHT22;1372;47.956;7.830;2023-02-28T15:10:42;5.20;99.90
2729;DHT22;1372;47.956;7.830;2023-02-28T15:13:13;5.30;99.90
2729;DHT22;1372;47.956;7.830;2023-02-28T15:15:47;5.30;99.90
2729;DHT22;1372;47.956;7.830;2023-02-28T15:18:41;5.40;99.90
2729;DHT22;1372;47.956;7.830;2023-02-28T15:21:15;5.20;99.90
2729;DHT22;1372;47.956;7.830;2023-02-28T15:23:48;5.10;99.90
2729;DHT22;1372;47.956;7.830;2023-02-28T15:26:21;5.20;99.90
2729;DHT22;1372;47.956;7.830;2023-02-28T15:28:57;5.00;99.90
2729;DHT22;1372;47.956;7.830;2023-02-28T15:31:33;5.00;99.90
2729;DHT22;1372;47.956;7.830;2023-02-28T15:34:29;5.00;99.90
2729;DHT22;1372;47.956;7.830;2023-02-28T15:37:40;5.00;99.90
2729;DHT22;1372;47.956;7.830;2023-02-28T15:40:16;5.00;99.90
2729;DHT22;1372;47.956;7.830;2023-02-28T15:43:04;5.00;99.90
2729;DHT22;1372;47.956;7.830;2023-02-28T15:45:39;4.80;99.90
2729;DHT22;1372;47.956;7.830;2023-02-28T15:48:18;4.80;99.90
2729;DHT22;1372;47.956;7.830;2023-02-28T15:50:52;4.80;99.90
2729;DHT22;1372;47.956;7.830;2023-02-28T15:53:25;4.70;99.90
2729;DHT22;1372;47.956;7.830;2023-02-28T15:56:00;4.70;99.90
2729;DHT22;1372;47.956;7.830;2023-02-28T15:58:30;4.60;99.90
2729;DHT22;1372;47.956;7.830;2023-02-28T16:01:03;4.60;99.90
2729;DHT22;1372;47.956;7.830;2023-02-28T16:03:43;4.60;99.90
2729;DHT22;1372;47.956;7.830;2023-02-28T16:06:35;4.60;99.90
2729;DHT22;1372;47.956;7.830;2023-02-28T16:09:08;4.60;99.90
2729;DHT22;1372;47.956;7.830;2023-02-28T16:11:42;4.60;99.90
2729;DHT22;1372;47.956;7.830;2023-02-28T16:14:15;4.50;99.90
2729;DHT22;1372;47.956;7.830;2023-02-28T16:16:47;4.60;99.90
2729;DHT22;1372;47.956;7.830;2023-02-28T16:19:17;4.70;99.90
2729;DHT22;1372;47.956;7.830;2023-02-28T16:21:48;4.70;99.90
2729;DHT22;1372;47.956;7.830;2023-02-28T16:24:17;4.90;99.90
2729;DHT22;1372;47.956;7.830;2023-02-28T16:26:49;5.10;99.90
2729;DHT22;1372;47.956;7.830;2023-02-28T16:29:36;5.40;99.90
2729;DHT22;1372;47.956;7.830;2023-02-28T16:32:06;5.20;99.90
2729;DHT22;1372;47.956;7.830;2023-02-28T16:34:35;4.80;99.90
2729;DHT22;1372;47.956;7.830;2023-02-28T16:37:13;4.70;99.90
2729;DHT22;1372;47.956;7.830;2023-02-28T16:39:53;4.60;99.90
2729;DHT22;1372;47.956;7.830;2023-02-28T16:42:24;4.30;99.90
2729;DHT22;1372;47.956;7.830;2023-02-28T16:44:55;4.40;99.90
2729;DHT22;1372;47.956;7.830;2023-02-28T16:47:28;4.30;99.90
2729;DHT22;1372;47.956;7.830;2023-02-28T16:49:59;4.20;99.90
2729;DHT22;1372;47.956;7.830;2023-02-28T16:52:29;4.10;99.90
2729;DHT22;1372;47.956;7.830;2023-02-28T16:54:58;4.10;99.90
2729;DHT22;1372;47.956;7.830;2023-02-28T16:57:27;3.90;99.90
2729;DHT22;1372;47.956;7.830;2023-02-28T16:59:58;3.90;99.90
2729;DHT22;1372;47.956;7.830;2023-02-28T17:02:27;3.70;99.90
2729;DHT22;1372;47.956;7.830;2023-02-28T17:04:56;3.80;99.90
2729;DHT22;1372;47.956;7.830;2023-02-28T17:07:25;3.70;99.90
2729;DHT22;1372;47.956;7.830;2023-02-28T17:09:55;3.60;99.90
2729;DHT22;1372;47.956;7.830;2023-02-28T17:12:27;3.50;99.90
2729;DHT22;1372;47.956;7.830;2023-02-28T17:14:56;3.30;99.90
2729;DHT22;1372;47.956;7.830;2023-02-28T17:17:26;3.10;99.90
2729;DHT22;1372;47.956;7.830;2023-02-28T17:19:56;3.00;99.90
2729;DHT22;1372;47.956;7.830;2023-02-28T17:22:30;2.80;99.90
2729;DHT22;1372;47.956;7.830;2023-02-28T17:25:00;2.80;99.90
2729;DHT22;1372;47.956;7.830;2023-02-28T17:27:29;2.60;99.90
2729;DHT22;1372;47.956;7.830;2023-02-28T17:30:02;2.40;99.90
2729;DHT22;1372;47.956;7.830;2023-02-28T17:32:32;2.30;99.90
2729;DHT22;1372;47.956;7.830;2023-02-28T17:35:02;2.10;99.90
2729;DHT22;1372;47.956;7.830;2023-02-28T17:37:31;2.00;99.90
2729;DHT22;1372;47.956;7.830;2023-02-28T17:40:02;1.90;99.90
2729;DHT22;1372;47.956;7.830;2023-02-28T17:42:31;1.80;99.90
2729;DHT22;1372;47.956;7.830;2023-02-28T17:45:03;1.70;99.90
2729;DHT22;1372;47.956;7.830;2023-02-28T17:47:33;1.60;99.90
2729;DHT22;1372;47.956;7.830;2023-02-28T17:50:02;1.50;99.90
2729;DHT22;1372;47.956;7.830;2023-02-28T17:52:34;1.40;99.90
2729;DHT22;1372;47.956;7.830;2023-02-28T17:55:06;1.20;99.90
2729;DHT22;1372;47.956;7.830;2023-02-28T17:57:35;1.10;99.90
2729;DHT22;1372;47.956;7.830;2023-02-28T18:00:05;1.00;99.90
2729;DHT22;1372;47.956;7.830;2023-02-28T18:02:35;1.00;99.90
2729;DHT22;1372;47.956;7.830;2023-02-28T18:05:05;0.90;99.90
2729;DHT22;1372;47.956;7.830;2023-02-28T18:07:35;0.80;99.90
2729;DHT22;1372;47.956;7.830;2023-02-28T18:10:10;0.80;99.90
2729;DHT22;1372;47.956;7.830;2023-02-28T18:12:42;0.80;99.90
2729;DHT22;1372;47.956;7.830;2023-02-28T18:15:11;0.70;99.90
2729;DHT22;1372;47.956;7.830;2023-02-28T18:17:40;0.90;99.90
2729;DHT22;1372;47.956;7.830;2023-02-28T18:20:10;1.00;99.90
2729;DHT22;1372;47.956;7.830;2023-02-28T18:22:41;1.00;99.90
2729;DHT22;1372;47.956;7.830;2023-02-28T18:25:12;0.90;99.90
2729;DHT22;1372;47.956;7.830;2023-02-28T18:27:44;0.90;99.90
2729;DHT22;1372;47.956;7.830;2023-02-28T18:30:25;0.80;99.90
2729;DHT22;1372;47.956;7.830;2023-02-28T18:32:57;0.60;99.90
2729;DHT22;1372;47.956;7.830;2023-02-28T18:35:26;0.60;99.90
2729;DHT22;1372;47.956;7.830;2023-02-28T18:38:07;0.60;99.90
2729;DHT22;1372;47.956;7.830;2023-02-28T18:40:40;0.60;99.90
2729;DHT22;1372;47.956;7.830;2023-02-28T18:43:10;0.50;99.90
2729;DHT22;1372;47.956;7.830;2023-02-28T18:45:38;0.40;99.90
2729;DHT22;1372;47.956;7.830;2023-02-28T18:48:07;0.30;99.90
2729;DHT22;1372;47.956;7.830;2023-02-28T18:50:37;0.20;99.90
2729;DHT22;1372;47.956;7.830;2023-02-28T18:53:08;0.10;99.90
2729;DHT22;1372;47.956;7.830;2023-02-28T18:55:37;0.10;99.90
2729;DHT22;1372;47.956;7.830;2023-02-28T18:58:07;0.00;99.90
2729;DHT22;1372;47.956;7.830;2023-02-28T19:00:39;0.10;99.90
2729;DHT22;1372;47.956;7.830;2023-02-28T19:03:11;0.20;99.90
2729;DHT22;1372;47.956;7.830;2023-02-28T19:05:43;0.10;99.90